createdAt,value
2022-10-11T00:02:34.844Z,5.47
2022-10-11T00:05:12.781Z,5.47
2022-10-11T00:07:51.082Z,5.60
2022-10-11T00:10:29.254Z,6.25
2022-10-11T00:13:07.528Z,5.38
2022-10-11T00:15:45.532Z,5.88
2022-10-11T00:18:24.308Z,5.43
2022-10-11T00:21:03.782Z,5.38
2022-10-11T00:23:42.210Z,5.25
2022-10-11T00:26:20.051Z,5.53
2022-10-11T00:28:58.171Z,6.03
2022-10-11T00:31:36.399Z,5.32
2022-10-11T00:34:17.176Z,5.53
2022-10-11T00:36:55.844Z,5.97
2022-10-11T00:39:34.100Z,5.45
2022-10-11T00:42:16.335Z,5.78
2022-10-11T00:45:31.537Z,5.53
2022-10-11T00:48:17.129Z,5.35
2022-10-11T00:50:58.673Z,5.88
2022-10-11T00:53:36.314Z,5.68
2022-10-11T00:56:38.436Z,5.50
2022-10-11T00:59:24.065Z,5.65
2022-10-11T01:02:04.024Z,5.65
2022-10-11T01:04:42.708Z,5.47
2022-10-11T01:07:20.869Z,6.05
2022-10-11T01:09:59.068Z,5.65
2022-10-11T01:12:37.308Z,5.55
2022-10-11T01:15:17.361Z,5.63
2022-10-11T01:18:10.659Z,6.00
2022-10-11T01:21:03.898Z,5.82
2022-10-11T01:24:08.751Z,5.38
2022-10-11T01:27:07.591Z,5.72
2022-10-11T01:30:23.034Z,6.13
2022-10-11T01:33:07.668Z,5.50
2022-10-11T01:36:04.965Z,5.80
2022-10-11T01:39:04.128Z,5.68
2022-10-11T01:41:46.273Z,5.97
2022-10-11T01:44:25.593Z,6.13
2022-10-11T01:47:03.785Z,6.05
2022-10-11T01:49:42.073Z,6.13
2022-10-11T01:52:20.109Z,5.63
2022-10-11T01:55:19.280Z,6.00
2022-10-11T01:58:06.645Z,5.70
2022-10-11T02:01:05.243Z,5.80
2022-10-11T02:03:48.168Z,5.85
2022-10-11T02:06:32.659Z,5.80
2022-10-11T02:09:17.788Z,5.65
2022-10-11T02:11:59.259Z,5.70
2022-10-11T02:14:39.528Z,5.72
2022-10-11T02:17:19.360Z,6.05
2022-10-11T02:19:57.243Z,5.53
2022-10-11T02:22:37.872Z,6.05
2022-10-11T02:25:21.881Z,5.75
2022-10-11T02:28:00.711Z,5.68
2022-10-11T02:30:38.110Z,5.68
2022-10-11T02:33:18.809Z,5.60
2022-10-11T02:36:00.201Z,5.95
2022-10-11T02:38:43.486Z,5.80
2022-10-11T02:41:33.563Z,6.05
2022-10-11T02:44:17.641Z,6.10
2022-10-11T02:46:56.060Z,5.93
2022-10-11T02:49:34.599Z,6.15
2022-10-11T02:52:12.453Z,6.00
2022-10-11T02:54:50.667Z,5.45
2022-10-11T02:57:28.875Z,6.28
2022-10-11T03:00:10.764Z,5.97
2022-10-11T03:02:47.103Z,6.03
2022-10-11T03:05:25.032Z,5.82
2022-10-11T03:08:03.261Z,5.70
2022-10-11T03:10:44.317Z,6.32
2022-10-11T03:13:22.849Z,5.63
2022-10-11T03:16:03.629Z,6.20
2022-10-11T03:18:42.434Z,6.00
2022-10-11T03:21:20.654Z,6.07
2022-10-11T03:23:58.838Z,6.10
2022-10-11T03:26:37.091Z,5.82
2022-10-11T03:29:15.237Z,6.43
2022-10-11T03:31:53.431Z,5.88
2022-10-11T03:34:31.588Z,5.75
2022-10-11T03:37:09.822Z,5.55
2022-10-11T03:39:50.285Z,6.03
2022-10-11T03:42:27.858Z,6.30
2022-10-11T03:45:09.767Z,5.72
2022-10-11T03:47:50.064Z,5.97
2022-10-11T03:50:40.635Z,6.07
2022-10-11T03:53:18.823Z,6.10
2022-10-11T03:55:57.028Z,5.93
2022-10-11T03:58:35.176Z,5.30
2022-10-11T04:01:13.389Z,5.55
2022-10-11T04:03:54.526Z,5.70
2022-10-11T04:06:32.975Z,5.30
2022-10-11T04:09:11.180Z,5.70
2022-10-11T04:11:49.393Z,6.10
2022-10-11T04:14:27.669Z,6.65
2022-10-11T04:17:05.805Z,5.57
2022-10-11T04:19:43.984Z,5.38
2022-10-11T04:22:22.219Z,5.70
2022-10-11T04:25:00.396Z,5.75
2022-10-11T04:27:38.629Z,5.82
2022-10-11T04:30:28.578Z,5.78
2022-10-11T04:33:06.902Z,5.55
2022-10-11T04:35:45.022Z,5.88
2022-10-11T04:38:23.764Z,6.00
2022-10-11T04:41:13.978Z,5.82
2022-10-11T04:43:52.344Z,5.88
2022-10-11T04:46:32.592Z,6.28
2022-10-11T04:49:13.021Z,6.18
2022-10-11T04:51:51.793Z,5.43
2022-10-11T04:54:30.045Z,6.05
2022-10-11T04:57:09.225Z,6.20
2022-10-11T04:59:50.315Z,6.13
2022-10-11T05:02:29.476Z,6.00
2022-10-11T05:05:08.030Z,6.40
2022-10-11T05:07:46.417Z,5.72
2022-10-11T05:10:25.774Z,6.28
2022-10-11T05:13:03.928Z,6.50
2022-10-11T05:15:41.912Z,5.32
2022-10-11T05:18:20.219Z,5.82
2022-10-11T05:21:03.974Z,5.78
2022-10-11T05:23:42.988Z,5.13
2022-10-11T05:26:21.182Z,6.13
2022-10-11T05:28:59.415Z,6.07
2022-10-11T05:31:37.519Z,6.10
2022-10-11T05:34:15.732Z,5.93
2022-10-11T05:36:53.967Z,5.55
2022-10-11T05:39:32.457Z,5.70
2022-10-11T05:42:10.356Z,5.78
2022-10-11T05:44:48.506Z,6.90
2022-10-11T05:47:26.765Z,6.22
2022-10-11T05:50:07.847Z,6.03
2022-10-11T05:52:46.368Z,6.40
2022-10-11T05:55:24.581Z,6.55
2022-10-11T05:58:02.748Z,6.43
2022-10-11T06:00:41.078Z,6.30
2022-10-11T06:03:21.023Z,6.45
2022-10-11T06:06:02.516Z,6.70
2022-10-11T06:08:40.342Z,6.38
2022-10-11T06:11:25.255Z,6.15
2022-10-11T06:14:14.814Z,5.80
2022-10-11T06:17:09.764Z,6.28
2022-10-11T06:20:02.033Z,5.97
2022-10-11T06:23:02.648Z,5.07
2022-10-11T06:26:00.634Z,5.53
2022-10-11T06:28:52.727Z,5.47
2022-10-11T06:32:00.297Z,5.20
2022-10-11T06:34:40.150Z,5.70
2022-10-11T06:37:37.903Z,5.45
2022-10-11T06:40:29.448Z,5.45
2022-10-11T06:43:27.029Z,5.47
2022-10-11T06:46:19.979Z,4.88
2022-10-11T06:49:12.064Z,5.57
2022-10-11T06:52:12.571Z,5.82
2022-10-11T06:55:08.305Z,5.97
2022-10-11T06:58:01.046Z,5.50
2022-10-11T07:01:02.685Z,5.22
2022-10-11T07:04:06.323Z,6.00
2022-10-11T07:07:00.927Z,5.97
2022-10-11T07:10:00.900Z,5.60
2022-10-11T07:13:07.827Z,4.90
2022-10-11T07:16:04.112Z,5.47
2022-10-11T07:19:01.485Z,5.88
2022-10-11T07:21:56.715Z,5.50
2022-10-11T07:25:00.688Z,6.05
2022-10-11T07:27:52.614Z,5.47
2022-10-11T07:30:48.181Z,5.55
2022-10-11T07:33:42.169Z,5.75
2022-10-11T07:36:37.307Z,5.65
2022-10-11T07:39:38.412Z,5.70
2022-10-11T07:42:29.997Z,5.35
2022-10-11T07:45:28.824Z,5.57
2022-10-11T07:48:39.079Z,5.53
2022-10-11T07:51:30.333Z,4.90
2022-10-11T07:54:26.434Z,5.05
2022-10-11T07:57:18.609Z,4.80
2022-10-11T08:00:29.298Z,4.55
2022-10-11T08:03:25.117Z,5.05
2022-10-11T08:06:19.201Z,5.35
2022-10-11T08:09:15.389Z,5.82
2022-10-11T08:12:07.311Z,5.30
2022-10-11T08:15:02.654Z,5.10
2022-10-11T08:18:06.676Z,4.93
2022-10-11T08:21:21.297Z,5.05
2022-10-11T08:24:16.580Z,4.90
2022-10-11T08:27:11.552Z,5.43
2022-10-11T08:30:12.892Z,5.28
2022-10-11T08:33:17.854Z,4.85
2022-10-11T08:36:14.018Z,4.93
2022-10-11T08:39:09.184Z,4.60
2022-10-11T08:42:06.869Z,4.70
2022-10-11T08:45:05.568Z,4.88
2022-10-11T08:47:30.672Z,5.28
2022-10-11T08:49:58.487Z,4.95
2022-10-11T08:52:59.728Z,4.35
2022-10-11T08:55:40.262Z,5.07
2022-10-11T08:58:08.758Z,5.32
2022-10-11T09:00:38.158Z,5.47
2022-10-11T09:03:20.719Z,5.22
2022-10-11T09:06:06.716Z,5.25
2022-10-11T09:08:40.722Z,4.82
2022-10-11T09:11:26.443Z,5.40
2022-10-11T09:14:01.482Z,5.25
2022-10-11T09:16:57.742Z,6.05
2022-10-11T09:19:46.549Z,5.60
2022-10-11T09:22:25.716Z,5.72
2022-10-11T09:25:24.383Z,6.00
2022-10-11T09:28:29.296Z,6.00
2022-10-11T09:30:57.382Z,6.47
2022-10-11T09:33:36.805Z,5.85
2022-10-11T09:36:34.396Z,6.28
2022-10-11T09:39:21.813Z,5.47
2022-10-11T09:41:56.775Z,5.88
2022-10-11T09:44:48.855Z,5.60
2022-10-11T09:47:26.638Z,5.95
2022-10-11T09:50:06.649Z,6.15
2022-10-11T09:52:34.242Z,5.78
2022-10-11T09:55:02.190Z,5.47
2022-10-11T09:57:36.473Z,5.68
2022-10-11T10:00:08.620Z,5.53
2022-10-11T10:02:47.434Z,6.20
2022-10-11T10:05:23.296Z,5.28
2022-10-11T10:08:05.230Z,5.95
2022-10-11T10:10:41.597Z,6.18
2022-10-11T10:13:24.904Z,5.88
2022-10-11T10:15:56.136Z,5.53
2022-10-11T10:18:32.440Z,6.07
2022-10-11T10:20:59.851Z,5.78
2022-10-11T10:23:33.202Z,5.68
2022-10-11T10:26:20.080Z,6.50
2022-10-11T10:28:57.710Z,6.80
2022-10-11T10:31:44.444Z,6.35
2022-10-11T10:34:27.249Z,6.90
2022-10-11T10:37:04.499Z,7.32
2022-10-11T10:39:35.161Z,7.25
2022-10-11T10:42:03.584Z,7.22
2022-10-11T10:44:31.615Z,7.13
2022-10-11T10:47:07.499Z,7.32
2022-10-11T10:49:58.566Z,6.88
2022-10-11T10:52:47.746Z,6.45
2022-10-11T10:55:33.261Z,7.47
2022-10-11T10:58:23.979Z,7.40
2022-10-11T11:00:58.690Z,8.02
2022-10-11T11:03:46.883Z,7.25
2022-10-11T11:06:44.652Z,7.03
2022-10-11T11:09:17.453Z,7.45
2022-10-11T11:11:44.732Z,7.18
2022-10-11T11:14:15.154Z,7.82
2022-10-11T11:16:48.742Z,7.53
2022-10-11T11:19:40.858Z,8.05
2022-10-11T11:22:32.701Z,8.27
2022-10-11T11:25:25.581Z,8.02
2022-10-11T11:28:04.257Z,7.00
2022-10-11T11:30:45.191Z,6.45
2022-10-11T11:33:36.624Z,7.40
2022-10-11T11:36:13.042Z,6.57
2022-10-11T11:38:51.487Z,6.93
2022-10-11T11:41:27.662Z,7.35
2022-10-11T11:43:58.115Z,7.25
2022-10-11T11:46:30.364Z,6.90
2022-10-11T11:48:59.839Z,7.13
2022-10-11T11:51:35.529Z,6.97
2022-10-11T11:54:16.285Z,6.88
2022-10-11T11:57:11.735Z,6.68
2022-10-11T11:59:43.396Z,8.18
2022-10-11T12:02:32.563Z,7.22
2022-10-11T12:05:00.337Z,7.60
2022-10-11T12:07:27.968Z,7.00
2022-10-11T12:10:25.492Z,8.02
2022-10-11T12:13:20.579Z,7.78
2022-10-11T12:18:29.025Z,7.93
2022-10-11T12:21:07.727Z,8.20
2022-10-11T12:24:00.315Z,8.27
2022-10-11T12:26:27.530Z,8.27
2022-10-11T12:29:28.456Z,7.38
2022-10-11T12:32:02.148Z,8.10
2022-10-11T12:34:36.636Z,7.53
2022-10-11T12:37:22.611Z,7.78
2022-10-11T12:39:54.604Z,7.50
2022-10-11T12:42:29.023Z,7.63
2022-10-11T12:45:14.790Z,8.00
2022-10-11T12:48:00.942Z,7.40
2022-10-11T12:50:34.289Z,7.55
2022-10-11T12:53:09.046Z,7.37
2022-10-11T12:56:09.588Z,8.15
2022-10-11T12:58:44.023Z,7.63
2022-10-11T13:01:14.717Z,8.43
2022-10-11T13:03:47.072Z,7.40
2022-10-11T13:06:19.985Z,7.53
2022-10-11T13:08:50.696Z,7.82
2022-10-11T13:11:20.558Z,7.40
2022-10-11T13:13:56.645Z,7.60
2022-10-11T13:16:29.451Z,7.90
2022-10-11T13:18:58.845Z,7.72
2022-10-11T13:21:30.916Z,7.85
2022-10-11T13:24:02.911Z,7.70
2022-10-11T13:26:31.183Z,8.07
2022-10-11T13:29:00.116Z,7.35
2022-10-11T13:31:27.695Z,6.88
2022-10-11T13:33:56.204Z,7.10
2022-10-11T13:36:25.519Z,7.75
2022-10-11T13:38:55.698Z,6.97
2022-10-11T13:41:26.092Z,6.60
2022-10-11T13:43:54.774Z,7.05
2022-10-11T13:46:26.259Z,6.90
2022-10-11T13:49:23.107Z,6.63
2022-10-11T13:52:01.193Z,6.50
2022-10-11T13:55:14.720Z,7.03
2022-10-11T13:57:46.183Z,6.45
2022-10-11T14:00:17.485Z,6.38
2022-10-11T14:02:49.908Z,6.78
2022-10-11T14:05:37.804Z,7.07
2022-10-11T14:08:24.413Z,6.28
2022-10-11T14:10:56.757Z,7.03
2022-10-11T14:13:41.112Z,7.03
2022-10-11T14:16:14.177Z,6.68
2022-10-11T14:18:49.875Z,6.50
2022-10-11T14:21:43.339Z,6.97
2022-10-11T14:24:10.816Z,6.78
2022-10-11T14:26:59.121Z,6.75
2022-10-11T14:29:30.777Z,6.90
2022-10-11T14:32:01.889Z,7.05
2022-10-11T14:34:31.395Z,6.80
2022-10-11T14:36:58.845Z,7.38
2022-10-11T14:39:27.871Z,6.72
2022-10-11T14:41:55.343Z,7.35
2022-10-11T14:44:22.893Z,7.00
2022-10-11T14:46:51.869Z,6.80
2022-10-11T14:49:22.618Z,6.95
2022-10-11T14:51:50.160Z,7.22
2022-10-11T14:54:24.949Z,7.00
2022-10-11T14:56:54.273Z,7.40
2022-10-11T14:59:23.644Z,7.10
2022-10-11T15:01:52.018Z,6.75
2022-10-11T15:04:24.913Z,6.80
2022-10-11T15:06:53.570Z,6.82
2022-10-11T15:09:21.394Z,7.28
2022-10-11T15:11:49.432Z,6.97
2022-10-11T15:14:16.889Z,7.13
2022-10-11T15:16:44.272Z,6.75
2022-10-11T15:19:19.950Z,7.15
2022-10-11T15:21:47.446Z,7.25
2022-10-11T15:24:15.002Z,7.75
2022-10-11T15:26:42.417Z,7.18
2022-10-11T15:29:13.042Z,7.03
2022-10-11T15:31:43.002Z,6.95
2022-10-11T15:34:11.203Z,7.47
2022-10-11T15:36:38.619Z,7.05
2022-10-11T15:39:26.440Z,6.72
2022-10-11T15:41:54.108Z,7.25
2022-10-11T15:44:21.561Z,7.50
2022-10-11T15:46:51.565Z,8.13
2022-10-11T15:49:21.847Z,7.55
2022-10-11T15:51:49.218Z,7.03
2022-10-11T15:54:19.857Z,7.22
2022-10-11T15:56:48.046Z,6.85
2022-10-11T15:59:15.542Z,7.18
2022-10-11T16:01:43.031Z,7.43
2022-10-11T16:04:11.600Z,6.55
2022-10-11T16:06:40.925Z,7.28
2022-10-11T16:09:08.401Z,6.72
2022-10-11T16:11:35.799Z,6.75
2022-10-11T16:14:03.251Z,6.75
2022-10-11T16:16:30.684Z,7.03
2022-10-11T16:18:58.122Z,7.18
2022-10-11T16:21:25.541Z,6.97
2022-10-11T16:23:52.929Z,6.55
2022-10-11T16:26:20.306Z,6.60
2022-10-11T16:28:48.158Z,6.90
2022-10-11T16:31:20.725Z,6.93
2022-10-11T16:33:48.248Z,6.47
2022-10-11T16:36:35.611Z,6.50
2022-10-11T16:39:21.107Z,6.57
2022-10-11T16:41:48.536Z,6.47
2022-10-11T16:44:17.789Z,6.30
2022-10-11T16:46:51.892Z,5.93
2022-10-11T16:51:47.224Z,6.60
2022-10-11T16:54:20.003Z,5.85
2022-10-11T16:56:51.120Z,6.47
2022-10-11T16:59:18.541Z,6.63
2022-10-11T17:01:45.996Z,6.47
2022-10-11T17:04:13.410Z,6.63
2022-10-11T17:06:40.884Z,6.53
2022-10-11T17:09:08.622Z,5.63
2022-10-11T17:11:38.898Z,6.85
2022-10-11T17:14:07.180Z,6.32
2022-10-11T17:16:35.012Z,6.97
2022-10-11T17:19:02.422Z,6.43
2022-10-11T17:21:29.888Z,6.57
2022-10-11T17:23:57.622Z,6.28
2022-10-11T17:26:26.468Z,6.45
2022-10-11T17:28:54.886Z,5.80
2022-10-11T17:31:22.894Z,6.40
2022-10-11T17:33:50.555Z,5.55
2022-10-11T17:36:23.395Z,5.40
2022-10-11T17:38:52.096Z,6.10
2022-10-11T17:41:19.959Z,5.90
2022-10-11T17:43:47.525Z,6.00
2022-10-11T17:46:15.422Z,5.68
2022-10-11T17:48:44.548Z,5.90
2022-10-11T17:51:14.432Z,5.75
2022-10-11T17:53:41.929Z,5.63
2022-10-11T17:56:11.395Z,5.47
2022-10-11T17:58:38.878Z,5.95
2022-10-11T18:01:08.890Z,6.03
2022-10-11T18:03:36.556Z,5.68
2022-10-11T18:06:05.586Z,5.82
2022-10-11T18:08:40.124Z,6.15
2022-10-11T18:11:12.312Z,6.25
2022-10-11T18:13:42.715Z,5.65
2022-10-11T18:16:11.138Z,5.90
2022-10-11T18:18:39.077Z,5.93
2022-10-11T18:21:06.455Z,6.10
2022-10-11T18:23:33.932Z,5.50
2022-10-11T18:26:11.848Z,6.13
2022-10-11T18:28:40.639Z,6.05
2022-10-11T18:31:14.852Z,7.32
2022-10-11T18:36:12.217Z,6.50
2022-10-11T18:38:40.217Z,6.72
2022-10-11T18:41:08.643Z,6.88
2022-10-11T18:43:36.423Z,5.72
2022-10-11T18:46:08.160Z,7.05
2022-10-11T18:48:35.736Z,6.93
2022-10-11T18:51:07.682Z,6.38
2022-10-11T18:53:35.650Z,6.93
2022-10-11T18:56:05.098Z,6.65
2022-10-11T18:58:33.141Z,5.95
2022-10-11T19:01:17.330Z,6.35
2022-10-11T19:03:46.197Z,5.70
2022-10-11T19:06:17.772Z,6.18
2022-10-11T19:08:49.068Z,6.00
2022-10-11T19:11:16.627Z,6.07
2022-10-11T19:13:44.293Z,6.05
2022-10-11T19:16:13.558Z,5.82
2022-10-11T19:18:44.287Z,6.03
2022-10-11T19:21:12.572Z,6.22
2022-10-11T19:23:41.912Z,5.43
2022-10-11T19:26:19.721Z,5.75
2022-10-11T19:28:47.821Z,5.47
2022-10-11T19:31:16.935Z,5.68
2022-10-11T19:33:44.888Z,5.43
2022-10-11T19:36:13.862Z,6.10
2022-10-11T19:38:44.083Z,5.40
2022-10-11T19:41:11.758Z,5.68
2022-10-11T19:43:39.239Z,5.60
2022-10-11T19:46:11.750Z,5.80
2022-10-11T19:48:39.475Z,5.60
2022-10-11T19:51:07.759Z,5.32
2022-10-11T19:53:35.214Z,5.53
2022-10-11T19:56:03.866Z,5.40
2022-10-11T19:58:31.423Z,6.00
2022-10-11T20:01:00.675Z,6.03
2022-10-11T20:03:28.089Z,6.05
2022-10-11T20:05:55.494Z,5.20
2022-10-11T20:08:26.426Z,5.50
2022-10-11T20:10:54.738Z,5.85
2022-10-11T20:13:22.089Z,5.57
2022-10-11T20:15:49.959Z,5.80
2022-10-11T20:18:17.841Z,5.57
2022-10-11T20:20:54.812Z,5.70
2022-10-11T20:23:27.578Z,5.45
2022-10-11T20:26:05.890Z,5.43
2022-10-11T20:28:36.568Z,5.47
2022-10-11T20:31:05.557Z,5.30
2022-10-11T20:33:32.980Z,5.22
2022-10-11T20:36:05.432Z,5.47
2022-10-11T20:38:33.473Z,5.45
2022-10-11T20:41:08.175Z,5.38
2022-10-11T20:43:35.593Z,5.88
2022-10-11T20:46:05.410Z,4.88
2022-10-11T20:48:36.784Z,5.38
2022-10-11T20:51:04.355Z,5.43
2022-10-11T20:53:31.726Z,5.25
2022-10-11T20:55:59.069Z,5.60
2022-10-11T20:58:26.499Z,5.30
2022-10-11T21:00:53.879Z,5.40
2022-10-11T21:03:21.230Z,5.32
2022-10-11T21:05:48.569Z,5.47
2022-10-11T21:08:15.991Z,5.18
2022-10-11T21:10:51.048Z,5.60
2022-10-11T21:13:18.471Z,5.13
2022-10-11T21:15:45.881Z,5.78
2022-10-11T21:18:13.288Z,5.82
2022-10-11T21:20:41.396Z,5.20
2022-10-11T21:23:09.343Z,5.57
2022-10-11T21:25:36.815Z,5.40
2022-10-11T21:28:04.405Z,5.60
2022-10-11T21:30:32.403Z,5.20
2022-10-11T21:32:59.769Z,4.78
2022-10-11T21:35:27.662Z,5.50
2022-10-11T21:37:55.565Z,5.50
2022-10-11T21:40:22.953Z,5.30
2022-10-11T21:42:50.347Z,5.25
2022-10-11T21:45:17.695Z,6.07
2022-10-11T21:47:46.295Z,4.88
2022-10-11T21:50:13.725Z,5.63
2022-10-11T21:52:44.050Z,5.88
2022-10-11T21:55:11.626Z,5.60
2022-10-11T21:57:40.034Z,5.63
2022-10-11T22:00:08.654Z,5.70
2022-10-11T22:02:40.809Z,5.57
2022-10-11T22:05:08.222Z,5.95
2022-10-11T22:07:35.588Z,5.38
2022-10-11T22:10:02.976Z,5.97
2022-10-11T22:12:30.383Z,5.95
2022-10-11T22:14:57.807Z,5.90
2022-10-11T22:17:25.533Z,5.65
2022-10-11T22:19:52.895Z,5.65
2022-10-11T22:22:20.266Z,5.65
2022-10-11T22:24:47.680Z,5.38
2022-10-11T22:27:15.064Z,5.95
2022-10-11T22:29:42.434Z,5.75
2022-10-11T22:32:09.821Z,6.20
2022-10-11T22:34:37.247Z,5.93
2022-10-11T22:37:04.657Z,5.47
2022-10-11T22:39:32.064Z,5.63
2022-10-11T22:41:59.440Z,5.72
2022-10-11T22:44:26.854Z,5.72
2022-10-11T22:46:56.993Z,5.63
2022-10-11T22:49:24.323Z,5.53
2022-10-11T22:51:51.709Z,5.50
2022-10-11T22:54:19.043Z,5.60
2022-10-11T22:56:46.431Z,5.35
2022-10-11T22:59:16.578Z,5.65
2022-10-11T23:01:43.969Z,5.18
2022-10-11T23:04:11.299Z,5.40
2022-10-11T23:06:38.669Z,5.55
2022-10-11T23:09:06.082Z,5.47
2022-10-11T23:11:33.761Z,5.80
2022-10-11T23:14:04.139Z,5.40
2022-10-11T23:16:31.504Z,5.40
2022-10-11T23:18:58.900Z,5.43
2022-10-11T23:21:27.138Z,5.70
2022-10-11T23:23:54.739Z,5.88
2022-10-11T23:26:22.167Z,5.60
2022-10-11T23:28:53.308Z,5.10
2022-10-11T23:31:23.709Z,5.53
2022-10-11T23:33:51.097Z,5.20
2022-10-11T23:36:20.668Z,5.50
2022-10-11T23:38:53.234Z,5.68
2022-10-11T23:41:21.561Z,5.57
2022-10-11T23:43:49.143Z,5.25
2022-10-11T23:46:16.561Z,5.90
2022-10-11T23:48:44.056Z,5.40
2022-10-11T23:51:11.666Z,5.05
2022-10-11T23:53:39.148Z,4.93
2022-10-11T23:56:07.143Z,5.43
2022-10-11T23:58:34.825Z,5.50
